AKDT,Max TemperatureF,Mean TemperatureF,Min TemperatureF,Max Dew PointF,MeanDew PointF,Min DewpointF,Max Humidity, Mean Humidity, Min Humidity, Max Sea Level PressureIn, Mean Sea Level PressureIn, Min Sea Level PressureIn, Max VisibilityMiles, Mean VisibilityMiles, Min VisibilityMiles, Max Wind SpeedMPH, Mean Wind SpeedMPH, Max Gust SpeedMPH,PrecipitationIn, CloudCover, Events, WindDirDegrees
2011-10-1,46,44,41,41,37,34,89,74,66,29.61,29.57,29.49,10,10,10,22,3,28,0.17,8,Rain,322
2011-10-2,46,44,41,41,39,38,89,86,77,29.57,29.51,29.45,10,9,3,20,7,24,0.27,8,Rain,341
2011-10-3,51,43,35,40,36,33,93,79,54,29.52,29.47,29.44,10,10,9,5,1,,0.00,4,,255
2011-10-4,50,42,34,37,34,31,92,72,52,29.56,29.53,29.49,10,10,10,6,1,,0.00,4,,220
2011-10-5,48,39,30,38,33,27,85,74,58,29.56,29.47,29.34,10,10,10,9,2,,0.00,6,,308
2011-10-6,48,44,39,41,37,36,89,78,63,29.52,29.39,29.32,10,10,10,9,3,,0.00,7,Rain,332
2011-10-7,48,44,41,41,39,38,93,83,71,29.76,29.66,29.54,10,9,0,5,1,,0.00,8,Fog-Rain,8
2011-10-8,51,45,39,39,37,35,93,81,56,29.78,29.72,29.59,10,9,0,5,1,,0.00,6,Fog-Rain,322
2011-10-9,48,39,32,36,31,27,89,77,54,29.60,29.56,29.53,10,10,4,5,1,,0.00,3,,26
2011-10-10,48,39,30,31,27,24,82,67,42,29.61,29.56,29.50,10,10,10,6,1,,0.00,1,,27
2011-10-11,44,34,25,26,23,19,81,64,43,29.69,29.57,29.50,10,10,10,8,1,,0.00,1,,155
2011-10-12,44,34,25,21,19,18,75,58,37,29.99,29.88,29.71,10,10,10,6,1,,0.00,1,,154
2011-10-13,42,38,33,29,23,18,70,55,47,30.03,29.97,29.81,10,10,10,8,2,,0.00,8,,3
2011-10-14,44,40,37,36,33,28,89,77,68,29.78,29.48,29.36,10,10,10,12,6,,0.00,7,Rain,308
2011-10-15,46,42,37,41,37,34,93,85,73,29.61,29.51,29.42,10,10,10,4,0,,0.08,8,Rain,295
2011-10-16,43,41,39,41,38,36,93,90,86,29.81,29.68,29.61,10,8,2,7,1,,0.30,8,Rain,357
2011-10-17,42,38,36,37,35,33,93,87,79,29.90,29.85,29.76,10,9,3,8,3,,0.06,8,Rain,8
2011-10-18,44,38,32,34,26,19,93,69,47,29.74,29.68,29.65,10,10,9,7,3,,0.00,5,,7
2011-10-19,39,34,30,29,27,23,85,74,65,29.75,29.73,29.70,10,10,10,6,1,,0.00,6,,1
2011-10-20,39,36,33,30,26,23,85,70,60,29.73,29.65,29.53,10,10,10,8,3,,0.00,7,,2
2011-10-21,39,36,33,29,26,23,75,65,53,29.52,29.40,29.33,10,10,10,8,3,,0.00,6,,337
2011-10-22,39,36,34,32,28,25,85,71,57,29.58,29.47,29.37,10,10,10,4,1,,0.01,7,Rain,9
2011-10-23,44,40,34,37,34,31,93,86,68,29.70,29.66,29.59,10,8,3,5,0,,0.03,7,Rain,45
2011-10-24,54,44,36,37,33,29,82,61,40,29.62,29.52,29.36,10,10,7,15,5,25,0.08,7,Rain,160
2011-10-25,54,47,41,36,34,29,82,64,40,29.35,29.01,28.81,10,10,7,17,8,30,0.03,7,Rain,33
2011-10-26,43,36,30,38,30,20,93,73,53,29.56,29.36,29.03,10,10,6,14,4,24,0.30,6,Rain,163
2011-10-27,37,30,24,25,23,19,84,71,59,29.60,29.55,29.44,10,10,10,7,1,,0.00,3,,4
2011-10-28,37,30,23,23,21,20,88,70,52,29.43,29.29,29.18,10,10,10,8,3,,0.00,2,,14
2011-10-29,36,30,26,25,21,20,81,69,54,29.21,29.12,29.05,10,10,10,10,2,,0.00,6,,21
2011-10-30,35,27,17,31,21,11,92,70,42,29.72,29.48,29.24,10,7,1,14,4,20,0.05,6,Snow,38
2011-10-31,26,20,15,21,18,8,88,79,65,29.73,29.67,29.59,10,6,0,9,4,,0.11,7,Snow,8